Time;durP1;ratioP1;P1;durP2;ratioP2;P2;SDS_P1;SDS_P2;PMS_P1;PMS_P2;Temp;Humidity;BMP_temperature;BMP_pressure;BME280_temperature;BME280_humidity;BME280_pressure;Samples;Min_cycle;Max_cycle;Signal;HPM_P1;HPM_P2
2022/08/28 00:01:08;;;;;;;;;;;18.90;99.90;;;;;;4939800;28;19938;-84
2022/08/28 00:03:35;;;;;;;;;;;18.90;99.90;;;;;;4942851;28;19981;-83
2022/08/28 00:06:02;;;;;;;;;;;18.90;99.90;;;;;;4942998;28;19961;-84
2022/08/28 00:08:30;;;;;;;;;;;18.90;99.90;;;;;;4928278;29;19970;-84
2022/08/28 00:10:57;;;;;;;;;;;18.90;99.90;;;;;;4943748;29;19927;-85
2022/08/28 00:13:25;;;;;;;;;;;18.90;99.90;;;;;;4922640;29;20342;-84
2022/08/28 00:15:55;;;;;;;;;;;18.90;99.90;;;;;;4947681;29;19926;-85
2022/08/28 00:18:22;;;;;;;;;;;18.90;99.90;;;;;;4944520;28;19930;-83
2022/08/28 00:20:49;;;;;;;;;;;18.90;99.90;;;;;;4947036;28;19934;-83
2022/08/28 00:23:16;;;;;;;;;;;18.90;99.90;;;;;;4930375;29;19954;-83
2022/08/28 00:25:43;;;;;;;;;;;18.90;99.90;;;;;;4941019;28;19981;-84
2022/08/28 00:28:09;;;;;;;;;;;18.90;99.90;;;;;;4938136;29;20510;-84
2022/08/28 00:30:37;;;;;;;;;;;18.90;99.90;;;;;;4950794;29;20437;-83
2022/08/28 00:33:07;;;;;;;;;;;18.90;99.90;;;;;;4951884;29;19926;-84
2022/08/28 00:35:35;;;;;;;;;;;18.90;99.90;;;;;;4951662;28;19927;-84
2022/08/28 00:38:04;;;;;;;;;;;18.90;99.90;;;;;;4952141;29;19931;-83
2022/08/28 00:40:32;;;;;;;;;;;18.80;99.90;;;;;;4936760;29;19985;-83
2022/08/28 00:42:59;;;;;;;;;;;18.80;99.90;;;;;;4955554;28;19926;-84
2022/08/28 00:45:26;;;;;;;;;;;18.80;99.90;;;;;;4948973;28;19935;-84
2022/08/28 00:47:53;;;;;;;;;;;18.80;99.90;;;;;;4954727;28;20297;-84
2022/08/28 00:50:23;;;;;;;;;;;18.80;99.90;;;;;;4948331;28;19958;-84
2022/08/28 00:52:52;;;;;;;;;;;18.80;99.90;;;;;;4950980;28;20317;-84
2022/08/28 00:55:21;;;;;;;;;;;18.80;99.90;;;;;;4942031;28;19985;-84
2022/08/28 00:57:49;;;;;;;;;;;18.80;99.90;;;;;;4947874;28;19926;-84
2022/08/28 01:00:17;;;;;;;;;;;18.70;99.90;;;;;;4937148;29;19931;-84
2022/08/28 01:02:44;;;;;;;;;;;18.70;99.90;;;;;;4928842;29;19986;-84
2022/08/28 01:05:11;;;;;;;;;;;18.80;99.90;;;;;;4952460;28;21568;-84
2022/08/28 01:07:39;;;;;;;;;;;18.70;99.90;;;;;;4958615;28;19930;-84
2022/08/28 01:10:08;;;;;;;;;;;18.80;99.90;;;;;;4949372;28;20020;-84
2022/08/28 01:12:37;;;;;;;;;;;18.80;99.90;;;;;;4945955;29;19981;-85
2022/08/28 01:15:08;;;;;;;;;;;18.80;99.90;;;;;;4952201;29;19941;-84
2022/08/28 01:17:35;;;;;;;;;;;18.70;99.90;;;;;;4951825;29;19927;-85
2022/08/28 01:20:05;;;;;;;;;;;18.70;99.90;;;;;;4945797;29;19937;-85
2022/08/28 01:22:36;;;;;;;;;;;18.70;99.90;;;;;;4949857;28;20514;-83
2022/08/28 01:25:05;;;;;;;;;;;18.70;99.90;;;;;;4940572;28;21130;-82
2022/08/28 01:27:32;;;;;;;;;;;18.70;99.90;;;;;;4931441;29;20382;-83
2022/08/28 01:29:59;;;;;;;;;;;18.70;99.90;;;;;;4948487;28;20060;-84
2022/08/28 01:32:28;;;;;;;;;;;18.70;99.90;;;;;;4948540;28;20365;-83
2022/08/28 01:34:55;;;;;;;;;;;18.70;99.90;;;;;;4937103;29;19926;-83
2022/08/28 01:37:22;;;;;;;;;;;18.70;99.90;;;;;;4951409;28;19926;-83
2022/08/28 01:39:49;;;;;;;;;;;18.70;99.90;;;;;;4947353;28;19974;-82
2022/08/28 01:42:17;;;;;;;;;;;18.70;99.90;;;;;;4943691;28;19926;-84
2022/08/28 01:44:44;;;;;;;;;;;18.70;99.90;;;;;;4949753;28;20364;-84
2022/08/28 01:47:11;;;;;;;;;;;18.70;99.90;;;;;;4951999;28;19985;-83
2022/08/28 01:49:38;;;;;;;;;;;18.70;99.90;;;;;;4951231;28;19926;-83
2022/08/28 01:52:05;;;;;;;;;;;18.70;99.90;;;;;;4948458;28;19930;-83
2022/08/28 01:54:31;;;;;;;;;;;18.70;99.90;;;;;;4937939;29;19941;-82
2022/08/28 01:56:58;;;;;;;;;;;18.60;99.90;;;;;;4931322;29;20020;-83
2022/08/28 01:59:26;;;;;;;;;;;18.60;99.90;;;;;;4933920;29;20005;-83
2022/08/28 02:01:54;;;;;;;;;;;18.70;99.90;;;;;;4917794;29;19938;-83
2022/08/28 02:04:21;;;;;;;;;;;18.60;99.90;;;;;;4912977;29;19934;-83
2022/08/28 02:06:47;;;;;;;;;;;18.60;99.90;;;;;;4944353;28;20049;-84
2022/08/28 02:09:14;;;;;;;;;;;18.60;99.90;;;;;;4945529;28;19927;-83
2022/08/28 02:11:42;;;;;;;;;;;18.60;99.90;;;;;;4948165;28;20365;-83
2022/08/28 02:14:09;;;;;;;;;;;18.60;99.90;;;;;;4945908;29;20476;-82
2022/08/28 02:16:37;;;;;;;;;;;18.60;99.90;;;;;;4933817;29;19959;-83
2022/08/28 02:19:04;;;;;;;;;;;18.60;99.90;;;;;;4937028;29;20363;-83
2022/08/28 02:21:31;;;;;;;;;;;18.60;99.90;;;;;;4951773;28;20025;-84
2022/08/28 02:23:58;;;;;;;;;;;18.60;99.90;;;;;;4926281;29;20552;-84
2022/08/28 02:26:25;;;;;;;;;;;18.60;99.90;;;;;;4949608;28;19926;-83
2022/08/28 02:28:51;;;;;;;;;;;18.50;99.90;;;;;;4944010;29;19997;-83
2022/08/28 02:31:19;;;;;;;;;;;18.50;99.90;;;;;;4944957;28;19934;-83
2022/08/28 02:33:47;;;;;;;;;;;18.50;99.90;;;;;;4945746;28;19927;-83
2022/08/28 02:36:15;;;;;;;;;;;18.50;99.90;;;;;;4948537;28;20013;-84
2022/08/28 02:38:42;;;;;;;;;;;18.50;99.90;;;;;;4934903;29;20424;-84
2022/08/28 02:41:10;;;;;;;;;;;18.50;99.90;;;;;;4937380;28;20029;-83
2022/08/28 02:43:39;;;;;;;;;;;18.50;99.90;;;;;;4944596;28;19970;-84
2022/08/28 02:46:07;;;;;;;;;;;18.50;99.90;;;;;;4931848;29;19926;-83
2022/08/28 02:48:35;;;;;;;;;;;18.50;99.90;;;;;;4928644;29;19927;-82
2022/08/28 02:51:04;;;;;;;;;;;18.50;99.90;;;;;;4945660;28;19930;-83
2022/08/28 02:53:31;;;;;;;;;;;18.50;99.90;;;;;;4930193;29;19973;-84
2022/08/28 02:55:59;;;;;;;;;;;18.40;99.90;;;;;;4946706;29;19978;-83
2022/08/28 02:58:27;;;;;;;;;;;18.50;99.90;;;;;;4949633;29;20290;-83
2022/08/28 03:00:53;;;;;;;;;;;18.40;99.90;;;;;;4929075;29;19946;-85
2022/08/28 03:03:20;;;;;;;;;;;18.40;99.90;;;;;;4946560;28;19938;-83
2022/08/28 03:05:48;;;;;;;;;;;18.40;99.90;;;;;;4926775;28;19992;-83
2022/08/28 03:08:16;;;;;;;;;;;18.40;99.90;;;;;;4949804;28;20399;-84
2022/08/28 03:10:43;;;;;;;;;;;18.40;99.90;;;;;;4928106;29;20282;-83
2022/08/28 03:13:10;;;;;;;;;;;18.40;99.90;;;;;;4941129;28;20131;-83
2022/08/28 03:15:37;;;;;;;;;;;18.40;99.90;;;;;;4940203;28;19927;-82
2022/08/28 03:18:04;;;;;;;;;;;18.40;99.90;;;;;;4947508;28;19961;-83
2022/08/28 03:20:30;;;;;;;;;;;18.30;99.90;;;;;;4948936;28;19987;-83
2022/08/28 03:25:43;;;;;;;;;;;18.30;99.90;;;;;;4943490;28;19923;-83
2022/08/28 03:28:10;;;;;;;;;;;18.30;99.90;;;;;;4927423;28;20382;-86
2022/08/28 03:30:37;;;;;;;;;;;18.30;99.90;;;;;;4922348;29;19985;-86
2022/08/28 03:33:04;;;;;;;;;;;18.30;99.90;;;;;;4930378;29;19962;-86
2022/08/28 03:35:31;;;;;;;;;;;18.30;99.90;;;;;;4928540;29;20405;-86
2022/08/28 03:37:58;;;;;;;;;;;18.30;99.90;;;;;;4944887;28;20305;-85
2022/08/28 03:40:25;;;;;;;;;;;18.30;99.90;;;;;;4938225;28;19954;-85
2022/08/28 03:42:53;;;;;;;;;;;18.30;99.90;;;;;;4946888;29;20065;-85
2022/08/28 03:45:20;;;;;;;;;;;18.30;99.90;;;;;;4944211;28;20449;-85
2022/08/28 03:47:47;;;;;;;;;;;18.30;99.90;;;;;;4940534;28;19937;-85
2022/08/28 03:50:16;;;;;;;;;;;18.30;99.90;;;;;;4942470;28;19927;-85
2022/08/28 03:52:43;;;;;;;;;;;18.30;99.90;;;;;;4937570;28;20429;-86
2022/08/28 03:55:11;;;;;;;;;;;18.30;99.90;;;;;;4949508;28;19926;-86
2022/08/28 03:57:39;;;;;;;;;;;18.30;99.90;;;;;;4941744;28;19938;-85
2022/08/28 04:00:10;;;;;;;;;;;18.30;99.90;;;;;;4942496;28;19926;-83
2022/08/28 04:02:40;;;;;;;;;;;18.30;99.90;;;;;;4946749;28;19930;-84
2022/08/28 04:05:08;;;;;;;;;;;18.30;99.90;;;;;;4942794;28;19935;-83
2022/08/28 04:07:35;;;;;;;;;;;18.30;99.90;;;;;;4937713;29;19933;-83
2022/08/28 04:10:02;;;;;;;;;;;18.30;99.90;;;;;;4941504;29;19930;-82
2022/08/28 04:12:29;;;;;;;;;;;18.30;99.90;;;;;;4949545;28;19926;-82
2022/08/28 04:14:56;;;;;;;;;;;18.30;99.90;;;;;;4950434;28;20413;-83
2022/08/28 04:17:25;;;;;;;;;;;18.30;99.90;;;;;;4947377;29;19930;-83
2022/08/28 04:19:52;;;;;;;;;;;18.30;99.90;;;;;;4940003;28;19934;-83
2022/08/28 04:22:19;;;;;;;;;;;18.30;99.90;;;;;;4924506;29;20368;-83
2022/08/28 04:24:46;;;;;;;;;;;18.30;99.90;;;;;;4941452;28;20025;-84
2022/08/28 04:27:13;;;;;;;;;;;18.30;99.90;;;;;;4945533;28;20633;-83
2022/08/28 04:29:40;;;;;;;;;;;18.30;99.90;;;;;;4946236;28;19934;-83
2022/08/28 04:32:07;;;;;;;;;;;18.30;99.90;;;;;;4928909;29;20449;-83
2022/08/28 04:34:36;;;;;;;;;;;18.30;99.90;;;;;;4943337;28;19974;-83
2022/08/28 04:37:04;;;;;;;;;;;18.30;99.90;;;;;;4926949;29;19972;-83
2022/08/28 04:39:31;;;;;;;;;;;18.20;99.90;;;;;;4938572;28;19935;-83
2022/08/28 04:41:58;;;;;;;;;;;18.30;99.90;;;;;;4942375;29;19935;-83
2022/08/28 04:44:24;;;;;;;;;;;18.20;99.90;;;;;;4942275;28;19930;-83
2022/08/28 04:46:52;;;;;;;;;;;18.20;99.90;;;;;;4925862;29;22445;-83
2022/08/28 04:49:19;;;;;;;;;;;18.20;99.90;;;;;;4936208;29;20048;-83
2022/08/28 04:51:47;;;;;;;;;;;18.20;99.90;;;;;;4942801;28;19935;-83
2022/08/28 04:54:14;;;;;;;;;;;18.20;99.90;;;;;;4921150;29;20180;-83
2022/08/28 04:56:41;;;;;;;;;;;18.20;99.90;;;;;;4941973;29;20004;-82
2022/08/28 04:59:08;;;;;;;;;;;18.20;99.90;;;;;;4937435;29;19935;-80
2022/08/28 05:01:35;;;;;;;;;;;18.20;99.90;;;;;;4934163;28;19933;-81
2022/08/28 05:04:10;;;;;;;;;;;18.20;99.90;;;;;;4937932;28;19927;-81
2022/08/28 05:06:42;;;;;;;;;;;18.20;99.90;;;;;;4928812;29;19926;-83
2022/08/28 05:09:10;;;;;;;;;;;18.20;99.90;;;;;;4947491;28;20080;-84
2022/08/28 05:11:37;;;;;;;;;;;18.20;99.90;;;;;;4951924;28;19976;-83
2022/08/28 05:14:06;;;;;;;;;;;18.20;99.90;;;;;;4943364;28;20053;-83
2022/08/28 05:16:33;;;;;;;;;;;18.20;99.90;;;;;;4944910;28;19981;-82
2022/08/28 05:19:00;;;;;;;;;;;18.20;99.90;;;;;;4937259;29;20321;-83
2022/08/28 05:21:27;;;;;;;;;;;18.20;99.90;;;;;;4941587;28;19926;-82
2022/08/28 05:23:55;;;;;;;;;;;18.20;99.90;;;;;;4936115;29;20732;-80
2022/08/28 05:26:23;;;;;;;;;;;18.20;99.90;;;;;;4941204;28;19926;-81
2022/08/28 05:28:50;;;;;;;;;;;18.20;99.90;;;;;;4942779;29;19927;-80
2022/08/28 05:31:18;;;;;;;;;;;18.20;99.90;;;;;;4952108;29;19981;-80
2022/08/28 05:33:46;;;;;;;;;;;18.20;99.90;;;;;;4949197;28;20014;-80
2022/08/28 05:36:13;;;;;;;;;;;18.20;99.90;;;;;;4943845;28;20049;-80
2022/08/28 05:38:40;;;;;;;;;;;18.20;99.90;;;;;;4951970;29;19939;-81
2022/08/28 05:41:07;;;;;;;;;;;18.20;99.90;;;;;;4937429;29;19926;-80
2022/08/28 05:43:36;;;;;;;;;;;18.20;99.90;;;;;;4948966;28;20492;-80
2022/08/28 05:46:06;;;;;;;;;;;18.20;99.90;;;;;;4952777;29;19985;-80
2022/08/28 05:48:33;;;;;;;;;;;18.20;99.90;;;;;;4948842;28;20009;-80
2022/08/28 05:51:04;;;;;;;;;;;18.10;99.90;;;;;;4948675;28;19934;-80
2022/08/28 05:53:31;;;;;;;;;;;18.20;99.90;;;;;;4936031;29;19982;-80
2022/08/28 05:55:57;;;;;;;;;;;18.20;99.90;;;;;;4952180;28;20037;-81
2022/08/28 05:58:31;;;;;;;;;;;18.20;99.90;;;;;;4953276;28;19938;-80
2022/08/28 06:01:10;;;;;;;;;;;18.10;99.90;;;;;;4931718;29;19926;-81
2022/08/28 06:03:37;;;;;;;;;;;18.20;99.90;;;;;;4950156;28;19954;-80
2022/08/28 06:06:05;;;;;;;;;;;18.10;99.90;;;;;;4947189;28;20586;-80
2022/08/28 06:08:32;;;;;;;;;;;18.10;99.90;;;;;;4943388;28;20126;-80
2022/08/28 06:11:00;;;;;;;;;;;18.10;99.90;;;;;;4949798;28;19926;-80
2022/08/28 06:13:27;;;;;;;;;;;18.10;99.90;;;;;;4952907;28;19949;-80
2022/08/28 06:15:55;;;;;;;;;;;18.20;99.90;;;;;;4942755;28;19935;-80
2022/08/28 06:18:24;;;;;;;;;;;18.20;99.90;;;;;;4952935;28;19930;-81
2022/08/28 06:20:52;;;;;;;;;;;18.20;99.90;;;;;;4946054;28;19939;-80
2022/08/28 06:23:20;;;;;;;;;;;18.20;99.90;;;;;;4944395;29;19989;-80
2022/08/28 06:25:48;;;;;;;;;;;18.20;99.90;;;;;;4948777;28;19927;-80
2022/08/28 06:28:15;;;;;;;;;;;18.10;99.90;;;;;;4954192;28;19938;-80
2022/08/28 06:30:42;;;;;;;;;;;18.20;99.90;;;;;;4934279;29;20615;-80
2022/08/28 06:33:11;;;;;;;;;;;18.20;99.90;;;;;;4932942;29;19977;-80
2022/08/28 06:35:41;;;;;;;;;;;18.20;99.90;;;;;;4950951;28;19963;-80
2022/08/28 06:38:08;;;;;;;;;;;18.20;99.90;;;;;;4952900;29;19927;-80
2022/08/28 06:40:38;;;;;;;;;;;18.20;99.90;;;;;;4945133;28;19981;-81
2022/08/28 06:43:04;;;;;;;;;;;18.20;99.90;;;;;;4935272;29;19930;-80
2022/08/28 06:45:31;;;;;;;;;;;18.20;99.90;;;;;;4950543;28;19980;-80
2022/08/28 06:47:58;;;;;;;;;;;18.20;99.90;;;;;;4939844;28;19927;-79
2022/08/28 06:50:25;;;;;;;;;;;18.20;99.90;;;;;;4946863;28;20029;-80
2022/08/28 06:52:53;;;;;;;;;;;18.30;99.90;;;;;;4937161;29;19958;-80
2022/08/28 06:55:20;;;;;;;;;;;18.20;99.90;;;;;;4947341;28;19926;-80
2022/08/28 06:57:47;;;;;;;;;;;18.20;99.90;;;;;;4948472;28;19982;-80
2022/08/28 07:00:14;;;;;;;;;;;18.30;99.90;;;;;;4948643;28;19927;-80
2022/08/28 07:02:42;;;;;;;;;;;18.30;99.90;;;;;;4931755;29;19985;-80
2022/08/28 07:05:09;;;;;;;;;;;18.30;99.90;;;;;;4936849;29;20005;-80
2022/08/28 07:07:36;;;;;;;;;;;18.30;99.90;;;;;;4942279;28;20392;-81
2022/08/28 07:10:05;;;;;;;;;;;18.30;99.90;;;;;;4934485;29;19945;-80
2022/08/28 07:12:31;;;;;;;;;;;18.30;99.90;;;;;;4950575;28;19934;-79
2022/08/28 07:14:58;;;;;;;;;;;18.30;99.90;;;;;;4943589;29;19930;-80
2022/08/28 07:17:25;;;;;;;;;;;18.30;99.90;;;;;;4943374;28;19931;-80
2022/08/28 07:19:52;;;;;;;;;;;18.30;99.90;;;;;;4947214;28;20417;-80
2022/08/28 07:22:19;;;;;;;;;;;18.40;99.90;;;;;;4940385;28;20022;-80
2022/08/28 07:24:46;;;;;;;;;;;18.40;99.90;;;;;;4949892;28;19930;-80
2022/08/28 07:27:14;;;;;;;;;;;18.40;99.90;;;;;;4948133;28;19935;-80
2022/08/28 07:29:41;;;;;;;;;;;18.40;99.90;;;;;;4945805;29;19926;-81
2022/08/28 07:32:08;;;;;;;;;;;18.50;99.90;;;;;;4949429;28;19938;-81
2022/08/28 07:34:37;;;;;;;;;;;18.50;99.90;;;;;;4931371;28;20482;-80
2022/08/28 07:37:05;;;;;;;;;;;18.50;99.90;;;;;;4945297;28;20017;-80
2022/08/28 07:39:33;;;;;;;;;;;18.50;99.90;;;;;;4958554;28;19930;-80
2022/08/28 07:42:00;;;;;;;;;;;18.50;99.90;;;;;;4945345;28;19981;-80
2022/08/28 07:47:12;;;;;;;;;;;18.50;99.90;;;;;;4938603;28;19938;-80
2022/08/28 07:49:40;;;;;;;;;;;18.60;99.90;;;;;;4952406;29;20409;-80
2022/08/28 07:52:08;;;;;;;;;;;18.50;99.90;;;;;;4949597;28;19934;-80
2022/08/28 07:54:35;;;;;;;;;;;18.60;99.90;;;;;;4956163;28;19930;-80
2022/08/28 07:57:02;;;;;;;;;;;18.60;99.90;;;;;;4939863;29;19994;-80
2022/08/28 07:59:31;;;;;;;;;;;18.60;99.90;;;;;;4950386;29;19927;-80
2022/08/28 08:01:57;;;;;;;;;;;18.60;99.90;;;;;;4946955;29;19994;-80
2022/08/28 08:04:25;;;;;;;;;;;18.60;99.90;;;;;;4939014;28;19933;-80
2022/08/28 08:06:52;;;;;;;;;;;18.60;99.90;;;;;;4950807;28;20590;-80
2022/08/28 08:09:21;;;;;;;;;;;18.70;99.90;;;;;;4950762;28;19926;-80
2022/08/28 08:11:48;;;;;;;;;;;18.70;99.90;;;;;;4950835;28;19980;-80
2022/08/28 08:14:15;;;;;;;;;;;18.60;99.90;;;;;;4951383;28;20354;-80
2022/08/28 08:16:46;;;;;;;;;;;18.70;99.90;;;;;;4938450;29;19934;-80
2022/08/28 08:19:13;;;;;;;;;;;18.60;99.90;;;;;;4935123;29;19934;-80
2022/08/28 08:21:41;;;;;;;;;;;18.70;99.90;;;;;;4951582;28;19930;-80
2022/08/28 08:24:08;;;;;;;;;;;18.70;99.90;;;;;;4957004;28;19930;-80
2022/08/28 08:26:36;;;;;;;;;;;18.60;99.90;;;;;;4937365;29;20733;-80
2022/08/28 08:29:03;;;;;;;;;;;18.70;99.90;;;;;;4954045;28;19957;-80
2022/08/28 08:31:31;;;;;;;;;;;18.70;99.90;;;;;;4955863;28;19934;-79
2022/08/28 08:34:02;;;;;;;;;;;18.70;99.90;;;;;;4951830;28;20278;-80
2022/08/28 08:36:30;;;;;;;;;;;18.70;99.90;;;;;;4942910;28;19926;-80
2022/08/28 08:38:58;;;;;;;;;;;18.70;99.90;;;;;;4953195;28;19926;-80
2022/08/28 08:41:30;;;;;;;;;;;18.70;99.90;;;;;;4946728;29;19930;-80
2022/08/28 08:43:59;;;;;;;;;;;18.70;99.90;;;;;;4936862;29;19931;-80
2022/08/28 08:46:28;;;;;;;;;;;18.70;99.90;;;;;;4939454;29;20369;-80
2022/08/28 08:48:55;;;;;;;;;;;18.70;99.90;;;;;;4938614;29;19931;-80
2022/08/28 08:51:30;;;;;;;;;;;18.70;99.90;;;;;;4950139;28;19926;-80
2022/08/28 08:54:03;;;;;;;;;;;18.70;99.90;;;;;;4945565;28;19927;-80
2022/08/28 08:56:30;;;;;;;;;;;18.70;99.90;;;;;;4951765;28;19931;-80
2022/08/28 08:59:00;;;;;;;;;;;18.80;99.90;;;;;;4949508;28;19926;-80
2022/08/28 09:01:28;;;;;;;;;;;18.80;99.90;;;;;;4950163;28;20397;-80
2022/08/28 09:04:00;;;;;;;;;;;18.80;99.90;;;;;;4942462;29;19930;-79
2022/08/28 09:06:33;;;;;;;;;;;18.80;99.90;;;;;;4954050;28;19927;-79
2022/08/28 09:09:01;;;;;;;;;;;18.80;99.90;;;;;;4925537;29;19930;-82
2022/08/28 09:11:36;;;;;;;;;;;18.80;99.90;;;;;;4932053;28;19949;-82
2022/08/28 09:14:06;;;;;;;;;;;18.80;99.90;;;;;;4951264;28;20988;-80
2022/08/28 09:16:36;;;;;;;;;;;18.90;99.90;;;;;;4929911;28;19927;-80
2022/08/28 09:19:03;;;;;;;;;;;18.90;99.90;;;;;;4936618;29;19942;-80
2022/08/28 09:21:32;;;;;;;;;;;18.90;99.90;;;;;;4939433;28;20357;-80
2022/08/28 09:24:03;;;;;;;;;;;18.90;99.90;;;;;;4949274;28;19930;-79
2022/08/28 09:26:30;;;;;;;;;;;18.90;99.90;;;;;;4933565;28;20350;-80
2022/08/28 09:29:01;;;;;;;;;;;18.90;99.90;;;;;;4953755;29;20026;-80
2022/08/28 09:31:32;;;;;;;;;;;19.00;99.90;;;;;;4952304;28;19934;-80
2022/08/28 09:34:16;;;;;;;;;;;19.00;99.90;;;;;;4935820;29;19931;-79
2022/08/28 09:36:45;;;;;;;;;;;19.00;99.90;;;;;;4947300;28;20424;-80
2022/08/28 09:39:16;;;;;;;;;;;19.00;99.90;;;;;;4951782;29;19957;-79
2022/08/28 09:44:33;;;;;;;;;;;19.00;99.90;;;;;;4945677;28;19927;-80
2022/08/28 09:47:00;;;;;;;;;;;19.10;99.90;;;;;;4950975;28;19957;-80
2022/08/28 09:49:28;;;;;;;;;;;19.10;99.90;;;;;;4934255;29;19927;-80
2022/08/28 09:52:00;;;;;;;;;;;19.10;99.90;;;;;;4947293;29;19930;-82
2022/08/28 09:54:31;;;;;;;;;;;19.10;99.90;;;;;;4949336;28;20377;-82
2022/08/28 09:56:57;;;;;;;;;;;19.20;99.90;;;;;;4953120;28;19934;-83
2022/08/28 09:59:25;;;;;;;;;;;19.20;99.90;;;;;;4936941;28;20022;-82
2022/08/28 10:02:00;;;;;;;;;;;19.20;99.90;;;;;;4948981;28;20354;-82
2022/08/28 10:04:41;;;;;;;;;;;19.20;99.90;;;;;;4949815;28;20405;-82
2022/08/28 10:07:14;;;;;;;;;;;19.20;99.90;;;;;;4930116;29;19935;-82
2022/08/28 10:09:45;;;;;;;;;;;19.20;99.90;;;;;;4930289;29;19978;-82
2022/08/28 10:12:15;;;;;;;;;;;19.30;99.90;;;;;;4944462;28;19927;-83
2022/08/28 10:14:48;;;;;;;;;;;19.30;99.90;;;;;;4946896;28;19937;-82
2022/08/28 10:17:20;;;;;;;;;;;19.30;99.90;;;;;;4937937;28;19941;-83
2022/08/28 10:19:52;;;;;;;;;;;19.40;99.90;;;;;;4936264;29;19938;-82
2022/08/28 10:22:26;;;;;;;;;;;19.40;99.90;;;;;;4949157;29;19926;-82
2022/08/28 10:25:00;;;;;;;;;;;19.40;99.90;;;;;;4947099;29;19927;-83
2022/08/28 10:27:35;;;;;;;;;;;19.40;99.90;;;;;;4929849;28;19934;-81
2022/08/28 10:30:03;;;;;;;;;;;19.50;99.90;;;;;;4950429;28;19981;-82
2022/08/28 10:32:48;;;;;;;;;;;19.50;99.90;;;;;;4931807;28;19926;-83
2022/08/28 10:35:17;;;;;;;;;;;19.50;99.90;;;;;;4940301;29;19993;-82
2022/08/28 10:37:51;;;;;;;;;;;19.60;99.90;;;;;;4939644;28;20389;-82
2022/08/28 10:40:21;;;;;;;;;;;19.60;99.90;;;;;;4949363;28;19926;-82
2022/08/28 10:42:54;;;;;;;;;;;19.60;99.90;;;;;;4945666;28;19927;-82
2022/08/28 10:45:22;;;;;;;;;;;19.60;99.90;;;;;;4935169;28;20318;-82
2022/08/28 10:47:52;;;;;;;;;;;19.60;99.90;;;;;;4948049;28;19969;-82
2022/08/28 10:50:22;;;;;;;;;;;19.60;99.90;;;;;;4948944;28;19935;-82
2022/08/28 10:52:53;;;;;;;;;;;19.70;99.90;;;;;;4931502;29;19975;-82
2022/08/28 10:55:22;;;;;;;;;;;19.70;99.90;;;;;;4953555;28;19926;-82
2022/08/28 10:57:51;;;;;;;;;;;19.70;99.90;;;;;;4946159;28;20029;-83
2022/08/28 11:00:19;;;;;;;;;;;19.70;99.90;;;;;;4946956;29;20368;-83
2022/08/28 11:02:48;;;;;;;;;;;19.70;99.90;;;;;;4955453;28;19938;-82
2022/08/28 11:05:19;;;;;;;;;;;19.70;99.90;;;;;;4940938;28;19935;-83
2022/08/28 11:07:49;;;;;;;;;;;19.80;99.90;;;;;;4952668;28;19950;-82
2022/08/28 11:10:24;;;;;;;;;;;19.80;99.90;;;;;;4946567;28;20421;-84
2022/08/28 11:12:51;;;;;;;;;;;19.90;99.90;;;;;;4933147;29;20010;-84
2022/08/28 11:15:36;;;;;;;;;;;19.90;99.90;;;;;;4949714;28;19926;-84
2022/08/28 11:18:18;;;;;;;;;;;19.90;99.90;;;;;;4928313;28;19966;-84
2022/08/28 11:20:55;;;;;;;;;;;19.90;99.90;;;;;;4944659;28;19931;-84
2022/08/28 11:23:24;;;;;;;;;;;19.90;99.90;;;;;;4955367;28;20452;-84
2022/08/28 11:25:56;;;;;;;;;;;19.90;99.90;;;;;;4952590;29;19931;-84
2022/08/28 11:28:37;;;;;;;;;;;20.00;99.90;;;;;;4942677;28;19931;-83
2022/08/28 11:31:23;;;;;;;;;;;20.00;99.90;;;;;;4947159;28;19990;-84
2022/08/28 11:33:51;;;;;;;;;;;20.00;99.90;;;;;;4939732;29;19935;-84
2022/08/28 11:36:33;;;;;;;;;;;20.00;99.90;;;;;;4949681;28;19969;-84
2022/08/28 11:39:05;;;;;;;;;;;20.00;99.90;;;;;;4947502;29;19930;-84
2022/08/28 11:41:35;;;;;;;;;;;20.10;99.90;;;;;;4931737;29;21258;-84
2022/08/28 11:44:26;;;;;;;;;;;20.10;99.90;;;;;;4947880;29;20195;-84
2022/08/28 11:46:55;;;;;;;;;;;20.10;99.90;;;;;;4952572;28;20013;-84
2022/08/28 11:49:40;;;;;;;;;;;20.10;99.90;;;;;;4943291;28;19937;-84
2022/08/28 11:52:12;;;;;;;;;;;20.10;99.90;;;;;;4945200;28;19974;-84
2022/08/28 11:54:45;;;;;;;;;;;20.10;99.90;;;;;;4948388;29;20109;-84
2022/08/28 11:57:17;;;;;;;;;;;20.20;99.90;;;;;;4946856;28;20409;-84
2022/08/28 11:59:59;;;;;;;;;;;20.20;99.90;;;;;;4947545;28;19955;-84
2022/08/28 12:02:47;;;;;;;;;;;20.20;99.90;;;;;;4945929;28;19974;-84
2022/08/28 12:05:33;;;;;;;;;;;20.20;99.90;;;;;;4946431;28;20274;-85
2022/08/28 12:08:01;;;;;;;;;;;20.10;99.90;;;;;;4942376;28;19933;-83
2022/08/28 12:10:50;;;;;;;;;;;20.20;99.90;;;;;;4949179;28;19926;-83
2022/08/28 12:13:32;;;;;;;;;;;20.20;99.90;;;;;;4947036;28;20461;-84
2022/08/28 12:16:05;;;;;;;;;;;20.30;99.90;;;;;;4946784;28;19926;-84
2022/08/28 12:18:50;;;;;;;;;;;20.30;99.90;;;;;;4952495;28;20417;-84
2022/08/28 12:21:19;;;;;;;;;;;20.30;99.90;;;;;;4945626;28;19935;-84
2022/08/28 12:23:57;;;;;;;;;;;20.30;99.90;;;;;;4947575;29;20252;-83
2022/08/28 12:26:25;;;;;;;;;;;20.30;99.90;;;;;;4951472;28;19930;-83
2022/08/28 12:28:53;;;;;;;;;;;20.30;99.90;;;;;;4938387;29;19934;-83
2022/08/28 12:34:22;;;;;;;;;;;20.40;99.90;;;;;;4949976;28;19926;-83
2022/08/28 12:36:55;;;;;;;;;;;20.40;99.90;;;;;;4944428;28;19934;-83
2022/08/28 12:39:22;;;;;;;;;;;20.40;99.90;;;;;;4948932;28;19926;-83
2022/08/28 12:41:49;;;;;;;;;;;20.40;99.90;;;;;;4956565;28;19987;-84
2022/08/28 12:44:16;;;;;;;;;;;20.40;99.90;;;;;;4951594;29;19926;-84
2022/08/28 12:46:44;;;;;;;;;;;20.40;99.90;;;;;;4938804;29;20345;-84
2022/08/28 12:49:28;;;;;;;;;;;20.50;99.90;;;;;;4950787;28;19973;-84
2022/08/28 12:52:07;;;;;;;;;;;20.50;99.90;;;;;;4953060;28;19942;-84
2022/08/28 12:54:34;;;;;;;;;;;20.50;99.90;;;;;;4949351;28;20448;-82
2022/08/28 12:57:03;;;;;;;;;;;20.50;99.90;;;;;;4950967;28;19927;-83
2022/08/28 12:59:34;;;;;;;;;;;20.50;99.90;;;;;;4942617;29;19927;-82
2022/08/28 13:02:03;;;;;;;;;;;20.50;99.90;;;;;;4940236;29;19954;-82
2022/08/28 13:04:32;;;;;;;;;;;20.50;99.90;;;;;;4950789;29;19995;-82
2022/08/28 13:07:01;;;;;;;;;;;20.50;99.90;;;;;;4947811;28;19927;-83
2022/08/28 13:09:28;;;;;;;;;;;20.60;99.90;;;;;;4943296;28;19927;-83
2022/08/28 13:11:55;;;;;;;;;;;20.60;99.90;;;;;;4936003;29;19927;-82
2022/08/28 13:14:36;;;;;;;;;;;20.60;99.90;;;;;;4952636;28;20505;-82
2022/08/28 13:17:04;;;;;;;;;;;20.60;99.90;;;;;;4954361;28;20445;-82
2022/08/28 13:19:31;;;;;;;;;;;20.50;99.90;;;;;;4952258;28;19981;-82
2022/08/28 13:22:00;;;;;;;;;;;20.60;99.90;;;;;;4938301;28;19926;-82
2022/08/28 13:24:35;;;;;;;;;;;20.60;99.90;;;;;;4948336;28;19985;-82
2022/08/28 13:27:05;;;;;;;;;;;20.60;99.90;;;;;;4949031;28;19927;-82
2022/08/28 13:29:32;;;;;;;;;;;20.60;99.90;;;;;;4952947;28;20354;-82
2022/08/28 13:31:59;;;;;;;;;;;20.60;99.90;;;;;;4944294;29;20204;-82
2022/08/28 13:34:28;;;;;;;;;;;20.60;99.90;;;;;;4950691;28;20403;-82
2022/08/28 13:36:58;;;;;;;;;;;20.50;99.90;;;;;;4948250;28;19950;-83
2022/08/28 13:39:25;;;;;;;;;;;20.60;99.90;;;;;;4954257;28;19982;-83
2022/08/28 13:41:53;;;;;;;;;;;20.50;99.90;;;;;;4949498;29;20401;-82
2022/08/28 13:44:27;;;;;;;;;;;20.60;99.90;;;;;;4949974;29;19931;-82
2022/08/28 13:46:54;;;;;;;;;;;20.60;99.90;;;;;;4950107;29;20381;-82
2022/08/28 13:49:21;;;;;;;;;;;20.60;99.90;;;;;;4941562;29;20033;-83
2022/08/28 13:51:50;;;;;;;;;;;20.60;99.90;;;;;;4936324;29;19980;-83
2022/08/28 13:54:16;;;;;;;;;;;20.50;99.90;;;;;;4948946;28;20338;-82
2022/08/28 13:56:43;;;;;;;;;;;20.60;99.90;;;;;;4936087;29;19934;-83
2022/08/28 13:59:10;;;;;;;;;;;20.60;99.90;;;;;;4940777;28;20413;-82
2022/08/28 14:04:22;;;;;;;;;;;20.50;99.90;;;;;;4945634;28;19926;-83
2022/08/28 14:06:50;;;;;;;;;;;20.50;99.90;;;;;;4949040;29;19968;-82
2022/08/28 14:09:17;;;;;;;;;;;20.50;99.90;;;;;;4931058;29;19982;-81
2022/08/28 14:11:44;;;;;;;;;;;20.50;99.90;;;;;;4949536;28;19973;-82
2022/08/28 14:14:11;;;;;;;;;;;20.50;99.90;;;;;;4946150;28;19958;-81
2022/08/28 14:16:39;;;;;;;;;;;20.60;99.90;;;;;;4944604;28;19935;-82
2022/08/28 14:19:06;;;;;;;;;;;20.60;99.90;;;;;;4939493;28;19941;-81
2022/08/28 14:21:34;;;;;;;;;;;20.60;99.90;;;;;;4951733;28;19927;-81
2022/08/28 14:24:02;;;;;;;;;;;20.60;99.90;;;;;;4946303;28;20624;-82
2022/08/28 14:26:30;;;;;;;;;;;20.50;99.90;;;;;;4947442;28;20026;-82
2022/08/28 14:28:57;;;;;;;;;;;20.60;99.90;;;;;;4950438;28;19930;-81
2022/08/28 14:31:24;;;;;;;;;;;20.60;99.90;;;;;;4946901;28;19977;-81
2022/08/28 14:33:51;;;;;;;;;;;20.60;99.90;;;;;;4951231;28;19930;-81
2022/08/28 14:36:20;;;;;;;;;;;20.60;99.90;;;;;;4946943;28;20005;-82
2022/08/28 14:38:47;;;;;;;;;;;20.60;99.90;;;;;;4950419;28;20411;-81
2022/08/28 14:41:16;;;;;;;;;;;20.60;99.90;;;;;;4953198;29;19941;-81